Terminal Aerodrome Forecast
Issued by NWS Charleston, WV

Current Version | Previous Version | Graphics & Text | Print | Product List | Glossary On
Versions: 1 2 3 4 5 6 7 8 9 10 11 12 13 14 15 16 17 18 19 20 21 22 23 24 25 26 27
000
FTUS41 KRLX 191558 AAA
TAFPKB
TAF AMD
KPKB 191558Z 1916/2012 20011G18KT P6SM OVC060
     FM191700 20008G17KT P6SM BKN035
     FM191900 21008G16KT P6SM BKN040
     FM200200 19006KT P6SM SCT150=

USA.gov is the U.S. government's official web portal to all federal, state and local government web resources and services.